Time;durP1;ratioP1;P1;durP2;ratioP2;P2;SDS_P1;SDS_P2;PMS_P1;PMS_P2;Temp;Humidity;BMP_temperature;BMP_pressure;BME280_temperature;BME280_humidity;BME280_pressure;Samples;Min_cycle;Max_cycle;Signal;HPM_P1;HPM_P2
2020/12/24 00:01:27;;;;;;;2.70;1.60;;;;;;;17.83;71.74;101962.81;5020481;28;20108;-71
2020/12/24 00:04:13;;;;;;;2.20;1.80;;;;;;;17.83;71.26;101961.03;5020407;28;20041;-71
2020/12/24 00:06:59;;;;;;;2.10;1.60;;;;;;;17.80;71.32;101958.31;5036406;28;20116;-71
2020/12/24 00:09:45;;;;;;;2.55;1.60;;;;;;;17.79;72.06;101953.84;5020423;28;20433;-71
2020/12/24 00:15:35;;;;;;;2.50;1.33;;;;;;;17.83;71.45;101968.16;5035054;28;20037;-71
2020/12/24 00:18:20;;;;;;;26.33;2.47;;;;;;;17.86;71.37;101957.44;5036051;28;20104;-71
2020/12/24 00:21:06;;;;;;;5.10;1.80;;;;;;;17.92;71.35;101960.16;5033676;28;20033;-70
2020/12/24 00:23:51;;;;;;;14.30;1.40;;;;;;;17.98;71.46;101964.66;5020148;28;20080;-71
2020/12/24 00:26:37;;;;;;;11.35;1.88;;;;;;;17.96;71.31;101969.09;5020036;28;20033;-71
2020/12/24 00:29:22;;;;;;;16.08;1.60;;;;;;;17.82;71.33;101977.94;5020200;28;20035;-72
2020/12/24 00:32:08;;;;;;;10.00;1.83;;;;;;;17.81;71.89;101977.91;5029551;28;20054;-71
2020/12/24 00:34:53;;;;;;;2.25;1.10;;;;;;;17.80;71.37;101979.69;5015057;28;20026;-71
2020/12/24 00:37:39;;;;;;;9.88;1.33;;;;;;;17.80;71.89;101978.78;5014827;28;20089;-71
2020/12/24 00:40:25;;;;;;;4.10;1.33;;;;;;;17.77;71.71;101978.78;5001692;28;20026;-72
2020/12/24 00:43:10;;;;;;;3.80;1.58;;;;;;;17.79;71.21;101980.56;5015285;28;20065;-71
2020/12/24 00:45:56;;;;;;;3.05;1.58;;;;;;;17.77;71.38;101971.69;5015032;28;20479;-71
2020/12/24 00:48:41;;;;;;;3.53;1.42;;;;;;;17.77;71.31;101968.13;5001568;28;20040;-71
2020/12/24 00:51:27;;;;;;;2.20;1.40;;;;;;;17.78;71.41;101964.56;5015072;28;20117;-71
2020/12/24 00:54:12;;;;;;;2.08;1.40;;;;;;;17.80;71.03;101960.09;5014853;28;20077;-71
2020/12/24 00:56:58;;;;;;;2.78;1.17;;;;;;;17.77;71.64;101957.44;5014880;28;20035;-71
2020/12/24 00:59:43;;;;;;;3.35;1.30;;;;;;;17.78;70.89;101959.22;5014881;28;20040;-72
2020/12/24 01:02:29;;;;;;;3.67;1.60;;;;;;;17.78;71.20;101960.13;5000846;28;20113;-71
2020/12/24 01:05:15;;;;;;;7.85;1.55;;;;;;;17.77;71.48;101962.78;5013938;28;20025;-72
2020/12/24 01:08:00;;;;;;;3.10;1.50;;;;;;;17.81;71.22;101967.22;5001092;28;20382;-72
2020/12/24 01:10:46;;;;;;;3.05;1.23;;;;;;;17.76;71.25;101955.63;5001260;28;20471;-72
2020/12/24 01:13:31;;;;;;;16.85;1.30;;;;;;;17.83;71.59;101955.69;5000906;28;20030;-71
2020/12/24 01:16:17;;;;;;;2.40;1.23;;;;;;;17.86;70.92;101944.09;5014401;28;20531;-71
2020/12/24 01:19:02;;;;;;;8.10;1.30;;;;;;;17.85;70.45;101945.00;5000341;28;20026;-72
2020/12/24 01:21:48;;;;;;;2.90;1.20;;;;;;;17.87;70.38;101946.78;5014547;28;20029;-71
2020/12/24 01:24:33;;;;;;;5.25;1.27;;;;;;;17.85;70.19;101939.66;5000268;28;20022;-72
2020/12/24 01:27:19;;;;;;;2.90;1.13;;;;;;;17.87;70.35;101938.75;4999890;28;20033;-72
2020/12/24 01:30:05;;;;;;;1.55;1.10;;;;;;;17.87;70.33;101948.56;5014136;28;20434;-71
2020/12/24 01:32:50;;;;;;;1.33;1.00;;;;;;;17.83;70.52;101946.78;5011665;28;20133;-71
2020/12/24 01:35:36;;;;;;;1.77;1.25;;;;;;;17.83;70.12;101939.66;5033553;28;20032;-71
2020/12/24 01:38:21;;;;;;;1.65;1.10;;;;;;;17.82;70.09;101935.19;5018894;28;20029;-71
2020/12/24 01:41:07;;;;;;;1.33;1.10;;;;;;;17.83;70.27;101925.41;5018615;28;20029;-71
2020/12/24 01:43:53;;;;;;;1.00;0.90;;;;;;;17.83;70.16;101928.97;5018781;28;20026;-71
2020/12/24 01:46:39;;;;;;;4.30;1.10;;;;;;;17.82;70.81;101927.19;5018960;28;20029;-71
2020/12/24 01:49:25;;;;;;;0.90;0.80;;;;;;;17.84;70.66;101929.84;5032942;28;20024;-71
2020/12/24 01:52:10;;;;;;;3.17;1.17;;;;;;;17.83;70.72;101930.75;5018630;28;20095;-71
2020/12/24 01:54:56;;;;;;;2.05;1.15;;;;;;;17.82;70.82;101923.59;5032840;28;20025;-71
2020/12/24 01:57:41;;;;;;;1.17;0.90;;;;;;;17.79;70.36;101929.81;5032764;28;20408;-71
2020/12/24 02:00:27;;;;;;;1.63;1.10;;;;;;;17.84;70.08;101922.75;5032691;28;20021;-71
2020/12/24 02:03:12;;;;;;;2.67;0.85;;;;;;;17.82;70.73;101923.59;5033264;28;20048;-72
2020/12/24 02:05:58;;;;;;;1.10;1.00;;;;;;;17.85;70.53;101923.63;5032866;28;20036;-71
2020/12/24 02:08:43;;;;;;;0.98;0.90;;;;;;;17.82;70.14;101924.50;5032439;28;20026;-71
2020/12/24 02:11:29;;;;;;;10.75;1.45;;;;;;;17.82;70.97;101929.84;5032524;28;20116;-71
2020/12/24 02:14:16;;;;;;;2.17;1.20;;;;;;;17.84;70.45;101929.84;5031593;28;20033;-71
2020/12/24 02:17:01;;;;;;;2.75;0.93;;;;;;;17.79;70.50;101927.16;5032623;28;20041;-71
2020/12/24 02:19:47;;;;;;;1.27;1.00;;;;;;;17.82;71.11;101932.53;5032772;28;20445;-71
2020/12/24 02:22:32;;;;;;;9.73;1.00;;;;;;;17.82;70.82;101928.94;5032859;28;20028;-72
2020/12/24 02:25:18;;;;;;;2.20;1.05;;;;;;;17.79;70.68;101926.25;5032888;28;20393;-72
2020/12/24 02:28:03;;;;;;;7.18;1.88;;;;;;;17.79;70.58;101913.78;5018851;28;20478;-71
2020/12/24 02:30:49;;;;;;;1.92;1.08;;;;;;;17.78;70.47;101917.38;5032705;28;20021;-73
2020/12/24 02:33:34;;;;;;;2.25;0.80;;;;;;;17.78;71.13;101911.13;5015501;28;20454;-71
2020/12/24 02:36:20;;;;;;;1.58;0.88;;;;;;;17.78;70.46;101919.16;5013386;28;20030;-72
2020/12/24 02:39:05;;;;;;;1.27;0.82;;;;;;;17.76;71.01;101913.78;5013232;28;20116;-72
2020/12/24 02:41:51;;;;;;;1.58;1.05;;;;;;;17.76;70.28;101921.81;5013439;28;20115;-72
2020/12/24 02:44:37;;;;;;;1.45;1.08;;;;;;;17.76;70.19;101910.22;4999814;28;20053;-72
2020/12/24 02:47:22;;;;;;;1.20;0.90;;;;;;;17.74;70.60;101907.53;4999541;28;20030;-72
2020/12/24 02:50:08;;;;;;;2.92;1.00;;;;;;;17.75;71.01;101908.44;5012296;28;20348;-72
2020/12/24 02:52:53;;;;;;;0.90;0.80;;;;;;;17.75;70.43;101912.00;4999535;28;20092;-72
2020/12/24 02:55:39;;;;;;;3.08;1.00;;;;;;;17.74;70.11;101911.97;4999685;28;20125;-72
2020/12/24 02:58:24;;;;;;;1.45;0.80;;;;;;;17.73;70.41;101910.19;4999408;28;20073;-72
2020/12/24 03:01:10;;;;;;;1.00;0.77;;;;;;;17.73;70.13;101919.09;5013026;28;20040;-72
2020/12/24 03:03:55;;;;;;;1.55;1.02;;;;;;;17.72;70.88;101919.97;5013310;28;20033;-71
2020/12/24 03:06:41;;;;;;;1.42;0.82;;;;;;;17.72;70.69;101911.09;5013237;28;20092;-72
2020/12/24 03:09:26;;;;;;;1.45;0.90;;;;;;;17.78;70.09;101916.47;5012956;28;20034;-71
2020/12/24 03:12:12;;;;;;;13.18;1.15;;;;;;;17.86;70.02;101918.28;5012900;28;20034;-71
2020/12/24 03:14:58;;;;;;;22.92;1.00;;;;;;;17.81;69.72;101921.81;5014062;28;20482;-71
2020/12/24 03:17:43;;;;;;;5.90;0.93;;;;;;;17.75;70.10;101920.00;5003210;28;20042;-72
2020/12/24 03:20:29;;;;;;;7.93;0.70;;;;;;;17.73;69.88;101913.75;5016140;28;20030;-71
2020/12/24 03:23:14;;;;;;;7.63;0.90;;;;;;;17.71;70.34;101912.88;5016480;28;20022;-71
2020/12/24 03:26:00;;;;;;;3.58;0.93;;;;;;;17.71;70.00;101931.59;5016599;28;20057;-70
2020/12/24 03:28:45;;;;;;;10.07;1.10;;;;;;;17.71;70.17;101920.00;5016704;28;20027;-71
2020/12/24 03:31:31;;;;;;;3.00;0.70;;;;;;;17.72;70.53;101927.13;5015925;28;20102;-71
2020/12/24 03:34:16;;;;;;;5.10;0.70;;;;;;;17.71;69.69;101923.56;5016677;28;20025;-71
2020/12/24 03:37:02;;;;;;;3.50;0.80;;;;;;;17.70;69.64;101924.44;5016822;28;20409;-71
2020/12/24 03:39:48;;;;;;;5.88;0.90;;;;;;;17.70;69.75;101919.09;5016670;28;20128;-71
2020/12/24 03:42:34;;;;;;;2.90;0.80;;;;;;;17.68;69.78;101919.97;5016578;28;20453;-71
2020/12/24 03:45:20;;;;;;;7.15;0.75;;;;;;;17.70;69.91;101921.78;5015754;28;20058;-71
2020/12/24 03:48:05;;;;;;;14.23;1.00;;;;;;;17.70;69.49;101927.13;5016764;28;20609;-71
2020/12/24 03:50:52;;;;;;;6.57;0.80;;;;;;;17.80;69.88;101930.72;5016842;28;20041;-71
2020/12/24 03:53:38;;;;;;;10.85;0.93;;;;;;;17.80;69.76;101933.38;5016585;28;20041;-71
2020/12/24 03:56:23;;;;;;;8.05;0.90;;;;;;;17.71;69.44;101931.59;5016661;28;20124;-71
2020/12/24 03:59:09;;;;;;;3.22;0.90;;;;;;;17.73;69.57;101934.22;5016344;28;20029;-71
2020/12/24 04:01:54;;;;;;;9.15;1.10;;;;;;;17.73;69.17;101934.22;5015981;28;20026;-71
2020/12/24 04:04:40;;;;;;;1.60;0.75;;;;;;;17.73;69.51;101950.25;5016087;28;20026;-71
2020/12/24 04:07:26;;;;;;;7.95;0.90;;;;;;;17.72;69.05;101945.84;5016504;28;20025;-71
2020/12/24 04:10:11;;;;;;;2.92;0.85;;;;;;;17.71;69.71;101949.38;5015904;28;20037;-71
2020/12/24 04:12:57;;;;;;;4.70;0.90;;;;;;;17.72;68.97;101943.16;5016223;28;20029;-71
2020/12/24 04:15:42;;;;;;;1.23;0.70;;;;;;;17.75;69.05;101940.50;5016372;28;20040;-71
2020/12/24 04:18:28;;;;;;;6.53;0.82;;;;;;;17.72;69.14;101946.69;5015719;28;20026;-71
2020/12/24 04:21:13;;;;;;;1.38;0.80;;;;;;;17.72;68.89;101948.50;5015973;28;20072;-71
2020/12/24 04:23:59;;;;;;;1.85;0.70;;;;;;;17.74;69.09;101952.94;5016251;28;20042;-71
2020/12/24 04:26:44;;;;;;;9.98;2.28;;;;;;;17.74;69.19;101947.59;5015483;28;20053;-72
2020/12/24 04:29:30;;;;;;;1.10;0.80;;;;;;;17.77;69.32;101944.06;5016015;28;20498;-72
2020/12/24 04:32:16;;;;;;;6.80;0.70;;;;;;;17.75;69.23;101946.72;5015630;28;20129;-72
2020/12/24 04:35:01;;;;;;;3.10;0.80;;;;;;;17.76;68.64;101952.97;5000452;28;20624;-71
2020/12/24 04:37:47;;;;;;;2.50;0.80;;;;;;;17.75;68.99;101951.19;5014735;28;20026;-71
2020/12/24 04:40:32;;;;;;;4.82;0.57;;;;;;;17.73;69.08;101952.94;5014799;28;20490;-72
2020/12/24 04:43:18;;;;;;;2.25;0.70;;;;;;;17.75;69.06;101959.19;5001926;28;20390;-71
2020/12/24 04:46:03;;;;;;;0.73;0.52;;;;;;;17.74;68.59;101960.97;5001524;28;20029;-71
2020/12/24 04:48:49;;;;;;;0.85;0.60;;;;;;;17.69;68.78;101962.72;5014629;28;20064;-72
2020/12/24 04:51:34;;;;;;;0.80;0.70;;;;;;;17.72;69.07;101969.88;5015153;28;20022;-71
2020/12/24 04:54:22;;;;;;;0.98;0.65;;;;;;;17.72;68.49;101967.19;5014011;28;20036;-72
2020/12/24 04:57:07;;;;;;;1.13;0.70;;;;;;;17.73;68.54;101974.31;5000752;28;20037;-72
2020/12/24 04:59:53;;;;;;;1.83;0.70;;;;;;;17.69;68.60;101967.16;5014859;28;20029;-71
2020/12/24 05:02:39;;;;;;;1.17;0.70;;;;;;;17.72;68.64;101972.53;5014403;28;20116;-71
2020/12/24 05:05:24;;;;;;;2.67;0.65;;;;;;;17.71;68.72;101963.63;5001087;28;20057;-71
2020/12/24 05:08:10;;;;;;;2.35;0.77;;;;;;;17.71;68.62;101966.31;5001442;28;20053;-72
2020/12/24 05:10:55;;;;;;;0.80;0.60;;;;;;;17.73;68.49;101966.28;5000761;28;20022;-72
2020/12/24 05:13:41;;;;;;;1.80;0.80;;;;;;;17.70;69.08;101967.19;5014573;28;20033;-72
2020/12/24 05:16:26;;;;;;;1.50;0.50;;;;;;;17.73;68.76;101972.53;5001195;28;20025;-71
2020/12/24 05:19:12;;;;;;;0.93;0.40;;;;;;;17.74;68.38;101976.09;5014693;28;20025;-72
2020/12/24 05:21:57;;;;;;;0.85;0.70;;;;;;;17.69;68.24;101977.84;5014495;28;20026;-71
2020/12/24 05:24:43;;;;;;;0.70;0.60;;;;;;;17.70;68.58;101972.53;5014549;28;20462;-72
2020/12/24 05:27:28;;;;;;;1.55;0.50;;;;;;;17.72;68.41;101975.22;5014239;28;20522;-71
2020/12/24 05:30:14;;;;;;;0.93;0.52;;;;;;;17.69;68.52;101977.84;5014420;28;20053;-71
2020/12/24 05:33:00;;;;;;;2.60;0.57;;;;;;;17.69;68.03;101980.53;5006351;28;20094;-71
2020/12/24 05:35:45;;;;;;;2.88;0.57;;;;;;;17.69;68.23;101985.88;5019589;28;20030;-72
2020/12/24 05:38:31;;;;;;;1.58;0.93;;;;;;;17.64;68.07;101979.63;5018613;28;20448;-71
2020/12/24 05:41:16;;;;;;;2.05;0.60;;;;;;;17.68;68.26;101976.06;5033536;28;20486;-71
2020/12/24 05:44:02;;;;;;;3.28;0.60;;;;;;;17.67;68.38;101979.63;5019080;28;20057;-72
2020/12/24 05:46:47;;;;;;;1.52;0.63;;;;;;;17.66;68.52;101975.16;5019147;28;20053;-71
2020/12/24 05:49:33;;;;;;;3.70;0.52;;;;;;;17.67;68.53;101976.94;5032048;28;20033;-71
2020/12/24 05:52:19;;;;;;;2.05;0.57;;;;;;;17.64;68.40;101971.59;5031777;28;20034;-70
2020/12/24 05:55:05;;;;;;;3.50;0.50;;;;;;;17.64;68.25;101972.50;5019080;28;20022;-71
2020/12/24 05:57:51;;;;;;;0.75;0.40;;;;;;;17.70;68.21;101976.97;5033122;28;20041;-70
2020/12/24 06:00:37;;;;;;;0.90;0.60;;;;;;;17.71;67.96;101979.66;5018601;28;20021;-70
2020/12/24 06:03:22;;;;;;;0.68;0.55;;;;;;;17.68;67.94;101974.28;5018802;28;20022;-70
2020/12/24 06:06:08;;;;;;;17.38;0.70;;;;;;;17.78;68.02;101992.19;5031698;28;20059;-70
2020/12/24 06:08:54;;;;;;;2.70;0.60;;;;;;;17.78;68.39;101994.84;5032890;28;20033;-70
2020/12/24 06:11:39;;;;;;;0.90;0.60;;;;;;;17.80;68.55;101997.50;5032870;28;20041;-71
2020/12/24 06:14:25;;;;;;;0.70;0.55;;;;;;;17.83;67.97;101992.19;5031455;28;20041;-71
2020/12/24 06:17:10;;;;;;;3.03;0.50;;;;;;;17.81;68.67;102005.53;5031647;28;20040;-71
2020/12/24 06:19:56;;;;;;;0.88;0.50;;;;;;;17.81;68.56;102001.97;5032467;28;20028;-71
2020/12/24 06:22:41;;;;;;;1.95;0.60;;;;;;;17.82;67.97;102006.44;5010989;28;20493;-71
2020/12/24 06:25:27;;;;;;;3.70;0.52;;;;;;;17.76;68.11;102011.72;5018602;28;20030;-71
2020/12/24 06:28:12;;;;;;;1.27;0.60;;;;;;;17.77;67.91;102011.75;5032612;28;20029;-71
2020/12/24 06:30:58;;;;;;;2.47;0.57;;;;;;;17.80;67.67;102018.88;5018092;28;20109;-71
2020/12/24 06:33:44;;;;;;;1.85;0.60;;;;;;;17.77;68.48;102019.75;5011908;28;20148;-71
2020/12/24 06:36:29;;;;;;;0.98;0.60;;;;;;;17.76;68.33;102014.41;4998678;28;20092;-71
2020/12/24 06:39:15;;;;;;;0.65;0.63;;;;;;;17.76;67.83;102023.31;4998652;28;20112;-70
2020/12/24 06:42:00;;;;;;;13.20;0.70;;;;;;;17.82;67.31;102020.69;5012429;28;20065;-71
2020/12/24 06:44:46;;;;;;;12.23;0.80;;;;;;;17.80;67.91;102024.22;4998358;28;20045;-71
2020/12/24 06:47:32;;;;;;;2.67;0.80;;;;;;;17.77;67.87;102024.22;4998742;28;20045;-71
2020/12/24 06:50:17;;;;;;;31.35;1.20;;;;;;;18.04;67.54;102023.47;5016105;28;20021;-70
2020/12/24 06:53:03;;;;;;;40.95;3.00;;;;;;;18.09;67.09;102022.63;5016758;28;20026;-71
2020/12/24 06:55:48;;;;;;;25.15;1.60;;;;;;;17.95;67.93;102021.66;5017207;28;20061;-70
2020/12/24 06:58:34;;;;;;;61.88;2.53;;;;;;;18.03;68.65;102024.34;5015943;28;20030;-72
2020/12/24 07:01:19;;;;;;;67.63;3.35;;;;;;;18.02;69.86;102026.13;5002543;28;20029;-71
2020/12/24 07:04:05;;;;;;;50.35;2.92;;;;;;;18.00;68.75;102025.22;5001782;28;20172;-71
2020/12/24 07:06:52;;;;;;;24.08;2.47;;;;;;;17.87;69.34;102031.38;5001745;28;20034;-72
2020/12/24 07:09:38;;;;;;;23.35;3.10;;;;;;;17.82;68.92;102030.47;5002075;28;20041;-72
2020/12/24 07:12:23;;;;;;;29.90;3.90;;;;;;;17.81;69.32;102036.69;5001532;28;20033;-73
2020/12/24 07:15:09;;;;;;;22.67;4.05;;;;;;;17.81;69.27;102036.69;5002259;28;20033;-71
2020/12/24 07:17:54;;;;;;;57.78;5.43;;;;;;;17.83;68.76;102030.50;5001657;28;20467;-71
2020/12/24 07:20:40;;;;;;;21.17;5.05;;;;;;;17.82;69.06;102035.81;5001379;28;20064;-71
2020/12/24 07:23:26;;;;;;;28.48;4.78;;;;;;;17.79;69.18;102030.44;5001411;28;20477;-71
2020/12/24 07:26:11;;;;;;;22.33;5.50;;;;;;;17.75;69.51;102039.31;5001500;28;20037;-70
2020/12/24 07:28:57;;;;;;;16.75;4.57;;;;;;;17.75;68.69;102042.00;5014960;28;20026;-70
2020/12/24 07:31:43;;;;;;;19.30;4.72;;;;;;;17.74;69.40;102034.88;5017532;28;20030;-70
2020/12/24 07:34:28;;;;;;;25.95;4.28;;;;;;;17.74;68.86;102040.19;5020772;28;20026;-71
2020/12/24 07:37:14;;;;;;;13.50;4.10;;;;;;;17.71;68.81;102025.06;5020789;28;20183;-71
2020/12/24 07:39:59;;;;;;;14.77;4.53;;;;;;;17.74;68.79;102042.88;5020512;28;20088;-72
2020/12/24 07:42:45;;;;;;;28.42;5.15;;;;;;;17.81;69.22;102042.94;5035109;28;20029;-73
2020/12/24 07:45:30;;;;;;;61.33;5.70;;;;;;;17.90;68.73;102039.44;5034853;28;20040;-72
2020/12/24 07:48:16;;;;;;;49.63;6.45;;;;;;;17.95;68.99;102042.13;5034789;28;20029;-72
2020/12/24 07:51:01;;;;;;;50.92;6.25;;;;;;;17.82;69.29;102039.38;5020268;28;20033;-71
2020/12/24 07:53:47;;;;;;;63.83;5.88;;;;;;;17.76;69.43;102038.44;5019722;28;20037;-71
2020/12/24 07:56:33;;;;;;;38.72;5.68;;;;;;;17.75;69.21;102047.34;5020218;28;20030;-72
2020/12/24 07:59:19;;;;;;;30.98;5.45;;;;;;;17.73;69.17;102046.44;5034391;28;20527;-72
2020/12/24 08:02:05;;;;;;;24.20;5.38;;;;;;;17.73;69.00;102047.31;5033922;28;20497;-73
2020/12/24 08:04:50;;;;;;;20.48;5.55;;;;;;;17.70;69.77;102051.75;5020420;28;20040;-72
2020/12/24 08:07:36;;;;;;;17.58;4.47;;;;;;;17.69;69.77;102044.63;5020216;28;20031;-72
2020/12/24 08:10:21;;;;;;;14.50;4.47;;;;;;;17.69;69.76;102039.28;5034622;28;20057;-72
2020/12/24 08:13:07;;;;;;;18.65;5.28;;;;;;;17.67;69.77;102033.94;5020085;28;20037;-72
2020/12/24 08:15:53;;;;;;;10.40;4.35;;;;;;;17.69;69.34;102039.28;5020582;28;20033;-72
2020/12/24 08:18:38;;;;;;;19.08;4.53;;;;;;;17.67;69.12;102041.94;5034631;28;20026;-72
2020/12/24 08:21:24;;;;;;;15.30;4.25;;;;;;;17.68;69.21;102040.16;5034343;28;20033;-72
2020/12/24 08:24:09;;;;;;;14.82;3.95;;;;;;;17.68;68.98;102037.50;5034167;28;20047;-72
2020/12/24 08:26:55;;;;;;;13.70;4.30;;;;;;;17.67;69.05;102036.59;5034161;28;20036;-72
2020/12/24 08:29:40;;;;;;;12.10;3.90;;;;;;;17.67;69.00;102033.03;5019740;28;20056;-71
2020/12/24 08:32:26;;;;;;;15.10;4.03;;;;;;;17.68;69.73;102032.16;5033778;28;20049;-72
2020/12/24 08:35:12;;;;;;;13.77;3.92;;;;;;;17.65;69.74;102025.03;5034024;28;20034;-71
2020/12/24 08:37:57;;;;;;;11.05;3.78;;;;;;;17.61;69.52;102025.88;5019642;28;20041;-71
2020/12/24 08:40:43;;;;;;;10.60;4.10;;;;;;;17.64;69.06;102030.34;5019574;28;20045;-72
2020/12/24 08:43:28;;;;;;;10.25;4.13;;;;;;;17.67;69.07;102022.34;5034069;28;20040;-72
2020/12/24 08:46:14;;;;;;;14.50;3.95;;;;;;;17.66;68.96;102026.78;5033818;28;20557;-72
2020/12/24 08:48:59;;;;;;;15.25;3.38;;;;;;;17.63;69.19;102020.56;5033982;28;20029;-71
2020/12/24 08:51:45;;;;;;;9.05;3.55;;;;;;;17.62;69.12;102008.06;5033639;28;20052;-71
2020/12/24 08:54:30;;;;;;;6.95;3.30;;;;;;;17.63;69.61;102005.41;5033740;28;20120;-72
2020/12/24 08:57:16;;;;;;;11.82;3.70;;;;;;;17.66;69.47;101999.19;5019327;28;20025;-71
2020/12/24 09:00:01;;;;;;;9.85;3.75;;;;;;;17.65;69.16;101995.66;5019179;28;20049;-72
2020/12/24 09:02:47;;;;;;;10.38;3.85;;;;;;;17.64;69.42;101990.28;5019181;28;20065;-72
2020/12/24 09:05:33;;;;;;;5.45;3.15;;;;;;;17.65;69.02;101989.41;5033594;28;20033;-71
2020/12/24 09:08:18;;;;;;;9.63;3.33;;;;;;;17.64;69.04;101991.19;5019053;28;20030;-71
2020/12/24 09:11:04;;;;;;;12.10;2.90;;;;;;;17.64;69.62;101982.28;5034502;28;20032;-72
2020/12/24 09:13:49;;;;;;;12.32;4.25;;;;;;;17.66;69.53;101980.50;5017927;28;20038;-72
2020/12/24 09:16:35;;;;;;;5.82;2.83;;;;;;;17.65;69.21;101973.38;5034001;28;20029;-73
2020/12/24 09:19:20;;;;;;;7.22;3.17;;;;;;;17.64;69.00;101977.84;5019158;28;20385;-72
2020/12/24 09:22:07;;;;;;;6.93;3.17;;;;;;;17.63;69.00;101970.69;5032951;28;20080;-72
2020/12/24 09:24:52;;;;;;;6.97;3.47;;;;;;;17.64;68.99;101963.59;5018732;28;20481;-72
2020/12/24 09:27:38;;;;;;;10.65;2.90;;;;;;;17.63;69.27;101960.03;5033057;28;20490;-72
2020/12/24 09:30:24;;;;;;;6.32;3.00;;;;;;;17.62;69.37;101957.34;5033151;28;20033;-71
2020/12/24 09:33:09;;;;;;;9.00;2.95;;;;;;;17.64;69.44;101950.22;5032559;28;20117;-72
2020/12/24 09:35:55;;;;;;;38.10;4.57;;;;;;;17.72;69.58;101948.50;5032913;28;20163;-73
2020/12/24 09:38:40;;;;;;;38.78;5.38;;;;;;;17.71;69.19;101944.03;5032810;28;20063;-71
2020/12/24 09:41:26;;;;;;;18.65;3.53;;;;;;;17.68;69.11;101938.66;5032790;28;20120;-70
2020/12/24 09:44:11;;;;;;;22.77;3.90;;;;;;;17.66;69.67;101933.31;5032803;28;20036;-71
2020/12/24 09:46:57;;;;;;;25.77;4.05;;;;;;;17.67;69.47;101923.53;5032444;28;20033;-70
2020/12/24 09:49:42;;;;;;;27.10;3.75;;;;;;;17.70;69.00;101924.44;5032620;28;20449;-70
2020/12/24 09:52:28;;;;;;;15.82;3.05;;;;;;;17.70;69.37;101912.88;5032378;28;20107;-70
2020/12/24 09:55:14;;;;;;;18.73;3.70;;;;;;;17.68;68.25;101912.84;5018076;28;20025;-71
2020/12/24 09:57:59;;;;;;;27.35;4.38;;;;;;;17.65;67.53;101910.19;5032436;28;20033;-71
2020/12/24 10:00:45;;;;;;;21.52;3.75;;;;;;;17.64;67.20;101907.50;5017902;28;20453;-71
2020/12/24 10:03:30;;;;;;;24.85;4.03;;;;;;;17.64;66.43;101902.16;5017995;28;20032;-71
2020/12/24 10:06:16;;;;;;;14.73;3.67;;;;;;;17.62;66.85;101899.47;5032147;28;20112;-70
2020/12/24 10:09:01;;;;;;;8.88;3.97;;;;;;;17.61;67.01;101902.13;5017905;28;20034;-70
2020/12/24 10:11:47;;;;;;;16.02;4.50;;;;;;;17.61;66.73;101894.13;5017948;28;20026;-71
2020/12/24 10:14:32;;;;;;;5.25;3.15;;;;;;;17.63;66.60;101892.34;5017862;28;20029;-70
2020/12/24 10:17:18;;;;;;;9.07;3.25;;;;;;;17.61;66.51;101889.66;5017800;28;20170;-70
2020/12/24 10:20:04;;;;;;;7.85;3.67;;;;;;;17.63;66.46;101884.34;5017730;28;20030;-70
2020/12/24 10:22:49;;;;;;;5.88;3.30;;;;;;;17.62;65.77;101877.22;5017729;28;20033;-70
2020/12/24 10:25:35;;;;;;;6.30;3.22;;;;;;;17.62;66.28;101872.78;5017528;28;20061;-70
2020/12/24 10:28:21;;;;;;;10.95;3.10;;;;;;;17.62;65.82;101870.09;5033329;28;20039;-71
2020/12/24 10:31:06;;;;;;;4.00;2.83;;;;;;;17.59;65.65;101863.84;5017745;28;20079;-70
2020/12/24 10:33:52;;;;;;;3.78;3.17;;;;;;;17.59;66.43;101855.81;5031865;28;20060;-71
2020/12/24 10:36:39;;;;;;;5.68;3.10;;;;;;;17.62;66.15;101850.50;5032053;28;20525;-70
2020/12/24 10:39:24;;;;;;;12.48;3.15;;;;;;;17.62;65.48;101842.50;5017650;28;20578;-71
2020/12/24 10:42:11;;;;;;;7.97;3.38;;;;;;;17.61;65.64;101841.59;5031759;28;20036;-70
2020/12/24 10:44:57;;;;;;;10.85;3.20;;;;;;;17.63;65.65;101841.63;5031710;28;20033;-70
2020/12/24 10:47:43;;;;;;;6.43;3.50;;;;;;;17.65;65.95;101842.53;5031898;28;20115;-70
2020/12/24 10:50:28;;;;;;;11.60;3.00;;;;;;;17.62;65.72;101835.38;5017316;28;20506;-71
2020/12/24 10:53:14;;;;;;;7.20;3.58;;;;;;;17.60;65.92;101837.09;5031706;28;20021;-71
2020/12/24 10:55:59;;;;;;;5.00;3.63;;;;;;;17.62;65.45;101831.81;5017327;28;20033;-70
2020/12/24 10:58:45;;;;;;;6.63;3.30;;;;;;;17.61;65.65;101828.25;5031767;28;20032;-71
2020/12/24 11:01:30;;;;;;;7.75;3.35;;;;;;;17.59;65.24;101829.13;5031747;28;20030;-71
2020/12/24 11:04:16;;;;;;;7.90;3.45;;;;;;;17.61;65.37;101816.66;5017349;28;20398;-71
2020/12/24 11:07:01;;;;;;;7.03;3.30;;;;;;;17.61;65.49;101812.22;5031950;28;20498;-71
2020/12/24 11:09:47;;;;;;;7.80;3.00;;;;;;;17.61;65.50;101809.56;5031632;28;20029;-71
2020/12/24 11:12:33;;;;;;;6.22;3.42;;;;;;;17.61;65.31;101803.31;5031719;28;20113;-72
2020/12/24 11:15:18;;;;;;;4.15;2.95;;;;;;;17.62;65.28;101802.44;5031622;28;20437;-71
2020/12/24 11:18:04;;;;;;;4.72;3.40;;;;;;;17.62;64.99;101803.34;5031483;28;20032;-71
2020/12/24 11:20:49;;;;;;;4.35;3.15;;;;;;;17.63;65.00;101804.22;5031546;28;20048;-71
2020/12/24 11:23:35;;;;;;;3.75;3.00;;;;;;;17.63;65.47;101804.22;5032582;28;20021;-70
2020/12/24 11:26:20;;;;;;;5.60;3.10;;;;;;;17.61;65.24;101808.66;5031548;28;20024;-71
2020/12/24 11:29:06;;;;;;;3.88;2.95;;;;;;;17.62;65.43;101807.78;5017192;28;20049;-71
2020/12/24 11:31:51;;;;;;;6.53;2.80;;;;;;;17.61;65.16;101798.88;5029609;28;20037;-71
2020/12/24 11:34:37;;;;;;;3.97;3.15;;;;;;;17.62;65.33;101797.09;5011257;28;20042;-71
2020/12/24 11:37:23;;;;;;;6.45;3.03;;;;;;;17.62;65.61;101803.34;5012922;28;20475;-71
2020/12/24 11:40:08;;;;;;;8.45;3.40;;;;;;;17.62;64.95;101805.09;5015254;28;20029;-71
2020/12/24 11:42:54;;;;;;;12.20;3.30;;;;;;;17.61;64.95;101800.66;5015258;28;20029;-71
2020/12/24 11:45:40;;;;;;;9.02;3.50;;;;;;;17.62;65.35;101797.09;5015114;28;20026;-71
2020/12/24 11:48:26;;;;;;;7.75;3.38;;;;;;;17.63;65.01;101782.84;5015456;28;20041;-71
2020/12/24 11:51:11;;;;;;;4.45;3.20;;;;;;;17.62;65.15;101787.31;5012950;28;20033;-71
2020/12/24 11:53:57;;;;;;;4.88;3.70;;;;;;;17.62;65.69;101789.09;5014827;28;20041;-71
2020/12/24 11:56:42;;;;;;;9.45;3.53;;;;;;;17.62;64.98;101786.41;5012623;28;20033;-71
2020/12/24 11:59:28;;;;;;;7.07;3.50;;;;;;;17.61;65.43;101782.84;5012712;28;20033;-71
2020/12/24 12:02:14;;;;;;;7.30;3.92;;;;;;;17.59;65.33;101773.03;5014960;28;20045;-71
2020/12/24 12:04:59;;;;;;;11.23;3.55;;;;;;;17.59;65.76;101778.38;5014889;28;20108;-71
2020/12/24 12:07:45;;;;;;;4.30;3.47;;;;;;;17.59;65.02;101787.25;5014655;28;20487;-71
2020/12/24 12:10:30;;;;;;;7.43;3.25;;;;;;;17.60;65.00;101775.69;5014780;28;20029;-71
2020/12/24 12:13:16;;;;;;;6.60;3.80;;;;;;;17.58;65.29;101774.81;5014578;28;20033;-71
2020/12/24 12:16:01;;;;;;;4.10;3.70;;;;;;;17.60;64.88;101774.78;5012566;28;20193;-71
2020/12/24 12:18:47;;;;;;;6.35;4.00;;;;;;;17.58;65.07;101771.25;5012284;28;20087;-71
2020/12/24 12:21:32;;;;;;;4.78;3.35;;;;;;;17.59;65.26;101778.38;5012493;28;20026;-71
2020/12/24 12:24:18;;;;;;;3.92;3.42;;;;;;;17.62;65.21;101770.38;5012017;28;20026;-72
2020/12/24 12:27:04;;;;;;;3.90;3.10;;;;;;;17.59;65.36;101771.22;5014498;28;20112;-71
2020/12/24 12:29:51;;;;;;;3.85;3.40;;;;;;;17.61;64.84;101774.84;5014155;28;20086;-71
2020/12/24 12:32:38;;;;;;;8.82;3.20;;;;;;;17.59;65.66;101771.22;5017727;28;20057;-72
2020/12/24 12:35:24;;;;;;;5.90;3.05;;;;;;;17.61;64.85;101771.28;5019537;28;20033;-72
2020/12/24 12:38:09;;;;;;;29.15;3.83;;;;;;;17.64;65.31;101779.31;5033958;28;20022;-71
2020/12/24 12:40:55;;;;;;;5.20;3.25;;;;;;;17.63;65.09;101781.09;5019576;28;20078;-71
2020/12/24 12:43:40;;;;;;;9.75;3.40;;;;;;;17.61;65.41;101782.84;5019590;28;20486;-73
2020/12/24 12:46:27;;;;;;;9.95;3.35;;;;;;;17.61;65.62;101779.28;5033589;28;20022;-73
2020/12/24 12:49:13;;;;;;;8.93;3.10;;;;;;;17.62;66.11;101784.63;5033838;28;20029;-74